Elmer, Pennsylvania
Current Conditions -  °F | °C
As of 1:55 AM on Monday 22 Dec 2014 (Local Time) from KN38 Reporting Station
Clear Clear  
Wind Chill: -10°   Ceiling: Unl
Heat Index: -6°   Visibility: 10mi
Dew Point: -7°   Wind: 5mph
Humidity: 93%   Direction: 140°SE
Pressure: 30.23"   Gusts: NA
Location:  41.9252°N, 77.5198°W
Report Text: KN38 220655Z AUTO 14004KT 10SM CLR M06/M07 A3023 RMK AO2
Loading
Personal Weather Stations






























Interactive Weather Map New forecast layout! Learn more

10-Day Weather Forecast

Advertisements
Track Severe Weather on mobile